Bretz, WV (26524)

12:16 PM EDT on August 04, 2015 (GMT -0400)
McKinney Cave Rd | | Change Station
CLOSE
Current Station
Personal Weather Station
Location: Reedsville, WV
Elevation: 1703 ft
Nearby Weather Stations

Elev 1703 ft 39.53 °N, 79.81 °W | Updated 32 seconds ago

Mostly Cloudy
Mostly Cloudy
76.8 °F
Feels Like 79 °F
N
1.3
Wind Variable Wind from SSW
Gusts 2.5 mph

Today
High -- | Low -- °F
--% Chance of Precip.
Yesterday
High -- | Low -- °F
Precip. -- in
6:21 AM 8:28 PM
Waning Gibbous, 76% visible
Pressure 29.99 in
Visibility 10.0 miles
Clouds Scattered Clouds 4700 ft
Scattered Clouds 6000 ft
Heat Index 79 °F
Dew Point 60 °F
Humidity 56%
Rainfall 0.04 in
Snow Depth Not available.
UV 8.0 out of 12
Pollen 3.40 out of 12
Air Quality Not available.
Flu Activity Not available.
METAR KMGW 041553Z VRB04KT 10SM SCT047 SCT060 27/12 A3002 RMK AO2 SLP154 T02670117

More Conditions Fewer Conditions

Pressure 29.99 in
Visibility 10.0 miles
Clouds Scattered Clouds 4700 ft
Scattered Clouds 6000 ft
Heat Index 79 °F
Dew Point 60 °F
Humidity 56%
Rainfall 0.04 in
Snow Depth Not available.
UV 8.0 out of 12
Pollen 3.40 out of 12
Air Quality Not available.
Flu Activity Not available.
METAR KMGW 041553Z VRB04KT 10SM SCT047 SCT060 27/12 A3002 RMK AO2 SLP154 T02670117

More Conditions Fewer Conditions

10-Day Weather Forecast

×

Almanac

Astronomy

Aug. 04, 2015 Rise Set
Actual Time
Civil Twilight
Nautical Twilight
Astronomical Twilight
Moon
Length of Visible Light
Length of Day
Tomorrow will be .
, % of the Moon is Illuminated

Today's Extremes

State Highs State Lows

Community

WunderPhotos

Upload Photos

1,843,913 photos uploaded!

WunderBlogs® & News

Nearby

Air Quality

  Air Quality AQ Index Pollutant
Not available.

Snow Depth

Station Depth Elevation

Earthquake Activity

City Distance Mag. Time & Date
Minimum magnitude displayed is 2.5.

Coastal Water Temperatures

Place Temperature

Stations

Nearby Weather Stations

Station Location Temp. Windchill Dew Point Humidity Wind Precip. Elev Updated Type